sensor_id;sensor_type;location;lat;lon;timestamp;P1;durP1;ratioP1;P2;durP2;ratioP2
8435;SDS011;4255;48.730;9.156;2023-04-24T00:02:14;1.60;;;1.50;;
8435;SDS011;4255;48.730;9.156;2023-04-24T00:04:40;2.00;;;1.80;;
8435;SDS011;4255;48.730;9.156;2023-04-24T00:07:09;2.45;;;1.88;;
8435;SDS011;4255;48.730;9.156;2023-04-24T00:09:35;1.90;;;1.67;;
8435;SDS011;4255;48.730;9.156;2023-04-24T00:12:01;3.27;;;1.70;;
8435;SDS011;4255;48.730;9.156;2023-04-24T00:14:29;8.57;;;4.05;;
8435;SDS011;4255;48.730;9.156;2023-04-24T00:16:55;1.80;;;1.70;;
8435;SDS011;4255;48.730;9.156;2023-04-24T00:19:21;1.93;;;1.70;;
8435;SDS011;4255;48.730;9.156;2023-04-24T00:21:47;2.10;;;1.90;;
8435;SDS011;4255;48.730;9.156;2023-04-24T00:24:15;5.40;;;2.03;;
8435;SDS011;4255;48.730;9.156;2023-04-24T00:26:41;2.30;;;1.75;;
8435;SDS011;4255;48.730;9.156;2023-04-24T00:29:07;2.13;;;1.93;;
8435;SDS011;4255;48.730;9.156;2023-04-24T00:31:33;3.13;;;2.10;;
8435;SDS011;4255;48.730;9.156;2023-04-24T00:34:01;1.70;;;1.60;;
8435;SDS011;4255;48.730;9.156;2023-04-24T00:36:27;2.42;;;1.75;;
8435;SDS011;4255;48.730;9.156;2023-04-24T00:38:53;2.20;;;1.73;;
8435;SDS011;4255;48.730;9.156;2023-04-24T00:41:20;2.53;;;1.70;;
8435;SDS011;4255;48.730;9.156;2023-04-24T00:43:47;1.60;;;1.50;;
8435;SDS011;4255;48.730;9.156;2023-04-24T00:46:13;2.40;;;1.50;;
8435;SDS011;4255;48.730;9.156;2023-04-24T00:48:39;2.58;;;1.70;;
8435;SDS011;4255;48.730;9.156;2023-04-24T00:51:05;3.35;;;1.90;;
8435;SDS011;4255;48.730;9.156;2023-04-24T00:53:31;2.17;;;1.70;;
8435;SDS011;4255;48.730;9.156;2023-04-24T00:55:57;2.15;;;2.00;;
8435;SDS011;4255;48.730;9.156;2023-04-24T00:58:23;1.60;;;1.50;;
8435;SDS011;4255;48.730;9.156;2023-04-24T01:00:49;1.65;;;1.55;;
8435;SDS011;4255;48.730;9.156;2023-04-24T01:03:18;1.70;;;1.60;;
8435;SDS011;4255;48.730;9.156;2023-04-24T01:05:49;2.92;;;1.70;;
8435;SDS011;4255;48.730;9.156;2023-04-24T01:08:16;2.65;;;1.80;;
8435;SDS011;4255;48.730;9.156;2023-04-24T01:10:42;1.90;;;1.80;;
8435;SDS011;4255;48.730;9.156;2023-04-24T01:13:09;2.00;;;1.80;;
8435;SDS011;4255;48.730;9.156;2023-04-24T01:15:35;2.13;;;2.03;;
8435;SDS011;4255;48.730;9.156;2023-04-24T01:18:01;2.53;;;1.73;;
8435;SDS011;4255;48.730;9.156;2023-04-24T01:20:27;1.70;;;1.50;;
8435;SDS011;4255;48.730;9.156;2023-04-24T01:22:55;2.55;;;2.10;;
8435;SDS011;4255;48.730;9.156;2023-04-24T01:25:21;2.70;;;1.50;;
8435;SDS011;4255;48.730;9.156;2023-04-24T01:27:47;2.90;;;1.75;;
8435;SDS011;4255;48.730;9.156;2023-04-24T01:30:13;1.40;;;1.33;;
8435;SDS011;4255;48.730;9.156;2023-04-24T01:32:39;5.35;;;1.80;;
8435;SDS011;4255;48.730;9.156;2023-04-24T01:35:09;3.83;;;1.52;;
8435;SDS011;4255;48.730;9.156;2023-04-24T01:37:34;2.93;;;2.60;;
8435;SDS011;4255;48.730;9.156;2023-04-24T01:40:02;2.30;;;2.10;;
8435;SDS011;4255;48.730;9.156;2023-04-24T01:42:29;1.70;;;1.60;;
8435;SDS011;4255;48.730;9.156;2023-04-24T01:44:55;1.98;;;1.80;;
8435;SDS011;4255;48.730;9.156;2023-04-24T01:47:21;2.20;;;2.00;;
8435;SDS011;4255;48.730;9.156;2023-04-24T01:49:48;2.10;;;1.80;;
8435;SDS011;4255;48.730;9.156;2023-04-24T01:52:14;1.70;;;1.60;;
8435;SDS011;4255;48.730;9.156;2023-04-24T01:54:41;3.25;;;1.95;;
8435;SDS011;4255;48.730;9.156;2023-04-24T01:57:07;2.00;;;1.90;;
8435;SDS011;4255;48.730;9.156;2023-04-24T01:59:33;2.03;;;1.83;;
8435;SDS011;4255;48.730;9.156;2023-04-24T02:02:01;2.17;;;2.08;;
8435;SDS011;4255;48.730;9.156;2023-04-24T02:04:27;2.13;;;2.00;;
8435;SDS011;4255;48.730;9.156;2023-04-24T02:10:15;2.78;;;1.90;;
8435;SDS011;4255;48.730;9.156;2023-04-24T02:12:41;4.50;;;2.10;;
8435;SDS011;4255;48.730;9.156;2023-04-24T02:15:07;1.87;;;1.73;;
8435;SDS011;4255;48.730;9.156;2023-04-24T02:17:33;2.00;;;1.90;;
8435;SDS011;4255;48.730;9.156;2023-04-24T02:19:58;1.70;;;1.52;;
8435;SDS011;4255;48.730;9.156;2023-04-24T02:22:24;2.00;;;1.90;;
8435;SDS011;4255;48.730;9.156;2023-04-24T02:24:50;1.87;;;1.77;;
8435;SDS011;4255;48.730;9.156;2023-04-24T02:27:15;2.23;;;2.10;;
8435;SDS011;4255;48.730;9.156;2023-04-24T02:29:41;3.47;;;2.07;;
8435;SDS011;4255;48.730;9.156;2023-04-24T02:32:06;5.17;;;2.30;;
8435;SDS011;4255;48.730;9.156;2023-04-24T02:34:34;1.90;;;1.70;;
8435;SDS011;4255;48.730;9.156;2023-04-24T02:36:59;1.50;;;1.40;;
8435;SDS011;4255;48.730;9.156;2023-04-24T02:39:25;1.70;;;1.60;;
8435;SDS011;4255;48.730;9.156;2023-04-24T02:41:50;2.17;;;2.07;;
8435;SDS011;4255;48.730;9.156;2023-04-24T02:44:16;2.20;;;1.57;;
8435;SDS011;4255;48.730;9.156;2023-04-24T02:46:42;1.80;;;1.70;;
8435;SDS011;4255;48.730;9.156;2023-04-24T02:49:08;6.70;;;1.87;;
8435;SDS011;4255;48.730;9.156;2023-04-24T02:51:33;1.90;;;1.70;;
8435;SDS011;4255;48.730;9.156;2023-04-24T02:53:59;2.40;;;1.80;;
8435;SDS011;4255;48.730;9.156;2023-04-24T02:56:24;1.70;;;1.60;;
8435;SDS011;4255;48.730;9.156;2023-04-24T02:58:50;1.70;;;1.60;;
8435;SDS011;4255;48.730;9.156;2023-04-24T03:01:16;2.10;;;1.93;;
8435;SDS011;4255;48.730;9.156;2023-04-24T03:03:42;12.65;;;2.30;;
8435;SDS011;4255;48.730;9.156;2023-04-24T03:06:08;1.83;;;1.73;;
8435;SDS011;4255;48.730;9.156;2023-04-24T03:08:34;1.73;;;1.63;;
8435;SDS011;4255;48.730;9.156;2023-04-24T03:10:59;2.60;;;2.30;;
8435;SDS011;4255;48.730;9.156;2023-04-24T03:13:25;2.50;;;1.83;;
8435;SDS011;4255;48.730;9.156;2023-04-24T03:15:51;1.90;;;1.80;;
8435;SDS011;4255;48.730;9.156;2023-04-24T03:18:17;2.47;;;2.20;;
8435;SDS011;4255;48.730;9.156;2023-04-24T03:20:45;2.17;;;1.97;;
8435;SDS011;4255;48.730;9.156;2023-04-24T03:23:11;5.32;;;2.47;;
8435;SDS011;4255;48.730;9.156;2023-04-24T03:25:37;2.20;;;2.00;;
8435;SDS011;4255;48.730;9.156;2023-04-24T03:28:02;3.00;;;1.90;;
8435;SDS011;4255;48.730;9.156;2023-04-24T03:30:28;4.30;;;2.07;;
8435;SDS011;4255;48.730;9.156;2023-04-24T03:32:53;3.87;;;1.63;;
8435;SDS011;4255;48.730;9.156;2023-04-24T03:35:19;2.40;;;2.20;;
8435;SDS011;4255;48.730;9.156;2023-04-24T03:37:46;2.47;;;1.77;;
8435;SDS011;4255;48.730;9.156;2023-04-24T03:40:11;2.27;;;2.10;;
8435;SDS011;4255;48.730;9.156;2023-04-24T03:42:37;2.00;;;1.90;;
8435;SDS011;4255;48.730;9.156;2023-04-24T03:45:02;1.97;;;1.87;;
8435;SDS011;4255;48.730;9.156;2023-04-24T03:47:28;1.95;;;1.85;;
8435;SDS011;4255;48.730;9.156;2023-04-24T03:49:54;2.03;;;1.87;;
8435;SDS011;4255;48.730;9.156;2023-04-24T03:52:20;2.78;;;2.00;;
8435;SDS011;4255;48.730;9.156;2023-04-24T03:54:46;2.10;;;2.00;;
8435;SDS011;4255;48.730;9.156;2023-04-24T03:57:11;2.30;;;2.10;;
8435;SDS011;4255;48.730;9.156;2023-04-24T03:59:37;1.87;;;1.77;;
8435;SDS011;4255;48.730;9.156;2023-04-24T04:02:03;2.17;;;2.07;;
8435;SDS011;4255;48.730;9.156;2023-04-24T04:04:28;4.97;;;1.90;;
8435;SDS011;4255;48.730;9.156;2023-04-24T04:06:54;7.37;;;2.00;;
8435;SDS011;4255;48.730;9.156;2023-04-24T04:09:19;1.80;;;1.70;;
8435;SDS011;4255;48.730;9.156;2023-04-24T04:11:45;6.00;;;1.90;;
8435;SDS011;4255;48.730;9.156;2023-04-24T04:14:10;3.93;;;2.73;;
8435;SDS011;4255;48.730;9.156;2023-04-24T04:16:36;2.03;;;1.93;;
8435;SDS011;4255;48.730;9.156;2023-04-24T04:19:02;3.10;;;1.97;;
8435;SDS011;4255;48.730;9.156;2023-04-24T04:21:28;2.67;;;1.85;;
8435;SDS011;4255;48.730;9.156;2023-04-24T04:23:55;2.35;;;1.80;;
8435;SDS011;4255;48.730;9.156;2023-04-24T04:26:21;2.60;;;2.03;;
8435;SDS011;4255;48.730;9.156;2023-04-24T04:28:50;3.13;;;2.40;;
8435;SDS011;4255;48.730;9.156;2023-04-24T04:31:19;3.63;;;1.80;;
8435;SDS011;4255;48.730;9.156;2023-04-24T04:33:46;1.80;;;1.70;;
8435;SDS011;4255;48.730;9.156;2023-04-24T04:36:11;2.73;;;2.30;;
8435;SDS011;4255;48.730;9.156;2023-04-24T04:38:37;3.13;;;2.10;;
8435;SDS011;4255;48.730;9.156;2023-04-24T04:41:03;1.83;;;1.70;;
8435;SDS011;4255;48.730;9.156;2023-04-24T04:43:28;2.20;;;2.10;;
8435;SDS011;4255;48.730;9.156;2023-04-24T04:45:56;2.25;;;2.10;;
8435;SDS011;4255;48.730;9.156;2023-04-24T04:48:22;4.38;;;2.55;;
8435;SDS011;4255;48.730;9.156;2023-04-24T04:50:48;2.60;;;2.50;;
8435;SDS011;4255;48.730;9.156;2023-04-24T04:53:14;2.78;;;2.58;;
8435;SDS011;4255;48.730;9.156;2023-04-24T04:55:40;2.80;;;2.53;;
8435;SDS011;4255;48.730;9.156;2023-04-24T04:58:05;3.67;;;2.50;;
8435;SDS011;4255;48.730;9.156;2023-04-24T05:00:31;3.03;;;2.83;;
8435;SDS011;4255;48.730;9.156;2023-04-24T05:03:00;3.13;;;2.92;;
8435;SDS011;4255;48.730;9.156;2023-04-24T05:05:26;3.08;;;2.58;;
8435;SDS011;4255;48.730;9.156;2023-04-24T05:07:52;5.03;;;3.03;;
8435;SDS011;4255;48.730;9.156;2023-04-24T05:10:17;3.20;;;2.90;;
8435;SDS011;4255;48.730;9.156;2023-04-24T05:12:43;8.63;;;3.17;;
8435;SDS011;4255;48.730;9.156;2023-04-24T05:15:08;2.70;;;2.50;;
8435;SDS011;4255;48.730;9.156;2023-04-24T05:17:34;3.05;;;2.70;;
8435;SDS011;4255;48.730;9.156;2023-04-24T05:20:01;2.30;;;2.20;;
8435;SDS011;4255;48.730;9.156;2023-04-24T05:22:30;4.90;;;2.95;;
8435;SDS011;4255;48.730;9.156;2023-04-24T05:24:56;3.05;;;2.75;;
8435;SDS011;4255;48.730;9.156;2023-04-24T05:27:22;2.83;;;2.63;;
8435;SDS011;4255;48.730;9.156;2023-04-24T05:29:47;2.60;;;2.40;;
8435;SDS011;4255;48.730;9.156;2023-04-24T05:32:13;3.33;;;2.83;;
8435;SDS011;4255;48.730;9.156;2023-04-24T05:34:39;3.43;;;2.70;;
8435;SDS011;4255;48.730;9.156;2023-04-24T05:37:04;2.73;;;2.53;;
8435;SDS011;4255;48.730;9.156;2023-04-24T05:39:33;3.20;;;3.00;;
8435;SDS011;4255;48.730;9.156;2023-04-24T05:42:00;3.20;;;3.00;;
8435;SDS011;4255;48.730;9.156;2023-04-24T05:44:26;2.72;;;2.55;;
8435;SDS011;4255;48.730;9.156;2023-04-24T05:46:52;5.53;;;3.03;;
8435;SDS011;4255;48.730;9.156;2023-04-24T05:49:17;4.03;;;3.37;;
8435;SDS011;4255;48.730;9.156;2023-04-24T05:51:43;3.80;;;3.50;;
8435;SDS011;4255;48.730;9.156;2023-04-24T05:54:09;3.20;;;3.00;;
8435;SDS011;4255;48.730;9.156;2023-04-24T05:56:37;3.60;;;2.92;;
8435;SDS011;4255;48.730;9.156;2023-04-24T05:59:02;3.43;;;3.17;;
8435;SDS011;4255;48.730;9.156;2023-04-24T06:01:28;3.60;;;3.27;;
8435;SDS011;4255;48.730;9.156;2023-04-24T06:03:54;4.00;;;3.33;;
8435;SDS011;4255;48.730;9.156;2023-04-24T06:06:20;3.10;;;2.90;;
8435;SDS011;4255;48.730;9.156;2023-04-24T06:08:46;3.50;;;3.20;;
8435;SDS011;4255;48.730;9.156;2023-04-24T06:11:11;4.30;;;3.40;;
8435;SDS011;4255;48.730;9.156;2023-04-24T06:13:37;10.80;;;3.67;;
8435;SDS011;4255;48.730;9.156;2023-04-24T06:16:02;3.83;;;3.57;;
8435;SDS011;4255;48.730;9.156;2023-04-24T06:18:28;8.20;;;3.60;;
8435;SDS011;4255;48.730;9.156;2023-04-24T06:20:54;3.40;;;3.20;;
8435;SDS011;4255;48.730;9.156;2023-04-24T06:23:20;3.60;;;3.30;;
8435;SDS011;4255;48.730;9.156;2023-04-24T06:25:46;5.17;;;3.30;;
8435;SDS011;4255;48.730;9.156;2023-04-24T06:28:12;3.93;;;3.63;;
8435;SDS011;4255;48.730;9.156;2023-04-24T06:30:37;4.40;;;3.47;;
8435;SDS011;4255;48.730;9.156;2023-04-24T06:33:03;4.30;;;3.17;;
8435;SDS011;4255;48.730;9.156;2023-04-24T06:35:29;3.30;;;3.10;;
8435;SDS011;4255;48.730;9.156;2023-04-24T06:37:54;3.27;;;3.00;;
8435;SDS011;4255;48.730;9.156;2023-04-24T06:40:21;3.67;;;3.00;;
8435;SDS011;4255;48.730;9.156;2023-04-24T06:42:47;3.83;;;2.90;;
8435;SDS011;4255;48.730;9.156;2023-04-24T06:45:12;3.70;;;3.03;;
8435;SDS011;4255;48.730;9.156;2023-04-24T06:47:38;3.27;;;3.07;;
8435;SDS011;4255;48.730;9.156;2023-04-24T06:50:04;2.80;;;2.60;;
8435;SDS011;4255;48.730;9.156;2023-04-24T06:52:30;4.20;;;2.57;;
8435;SDS011;4255;48.730;9.156;2023-04-24T06:55:01;4.43;;;3.00;;
8435;SDS011;4255;48.730;9.156;2023-04-24T06:57:30;3.20;;;2.90;;
8435;SDS011;4255;48.730;9.156;2023-04-24T06:59:56;3.40;;;3.20;;
8435;SDS011;4255;48.730;9.156;2023-04-24T07:02:21;3.37;;;3.10;;
8435;SDS011;4255;48.730;9.156;2023-04-24T07:04:47;3.10;;;2.80;;
8435;SDS011;4255;48.730;9.156;2023-04-24T07:07:13;3.60;;;3.40;;
8435;SDS011;4255;48.730;9.156;2023-04-24T07:09:41;3.20;;;3.00;;
8435;SDS011;4255;48.730;9.156;2023-04-24T07:12:07;3.27;;;3.00;;
8435;SDS011;4255;48.730;9.156;2023-04-24T07:14:33;3.63;;;3.27;;
8435;SDS011;4255;48.730;9.156;2023-04-24T07:16:59;2.87;;;2.60;;
8435;SDS011;4255;48.730;9.156;2023-04-24T07:19:26;3.53;;;3.15;;
8435;SDS011;4255;48.730;9.156;2023-04-24T07:21:51;3.20;;;2.90;;
8435;SDS011;4255;48.730;9.156;2023-04-24T07:24:18;2.97;;;2.75;;
8435;SDS011;4255;48.730;9.156;2023-04-24T07:26:44;3.43;;;2.63;;
8435;SDS011;4255;48.730;9.156;2023-04-24T07:29:11;2.70;;;2.50;;
8435;SDS011;4255;48.730;9.156;2023-04-24T07:31:37;2.57;;;2.47;;
8435;SDS011;4255;48.730;9.156;2023-04-24T07:34:03;2.50;;;2.30;;
8435;SDS011;4255;48.730;9.156;2023-04-24T07:36:28;2.93;;;2.63;;
8435;SDS011;4255;48.730;9.156;2023-04-24T07:38:54;2.50;;;2.33;;
8435;SDS011;4255;48.730;9.156;2023-04-24T07:41:20;3.00;;;2.80;;
8435;SDS011;4255;48.730;9.156;2023-04-24T07:43:46;2.80;;;2.60;;
8435;SDS011;4255;48.730;9.156;2023-04-24T07:46:12;2.30;;;2.10;;
8435;SDS011;4255;48.730;9.156;2023-04-24T07:48:37;2.93;;;2.27;;
8435;SDS011;4255;48.730;9.156;2023-04-24T07:51:03;2.53;;;2.33;;
8435;SDS011;4255;48.730;9.156;2023-04-24T07:53:28;2.70;;;2.50;;
8435;SDS011;4255;48.730;9.156;2023-04-24T07:55:55;2.30;;;2.20;;
8435;SDS011;4255;48.730;9.156;2023-04-24T07:58:21;3.17;;;2.70;;
8435;SDS011;4255;48.730;9.156;2023-04-24T08:00:46;2.40;;;2.30;;
8435;SDS011;4255;48.730;9.156;2023-04-24T08:03:12;2.73;;;2.37;;
8435;SDS011;4255;48.730;9.156;2023-04-24T08:05:38;3.40;;;3.10;;
8435;SDS011;4255;48.730;9.156;2023-04-24T08:08:04;2.87;;;2.67;;
8435;SDS011;4255;48.730;9.156;2023-04-24T08:10:29;3.83;;;2.10;;
8435;SDS011;4255;48.730;9.156;2023-04-24T08:12:55;3.20;;;2.40;;
8435;SDS011;4255;48.730;9.156;2023-04-24T08:15:21;2.70;;;1.80;;
8435;SDS011;4255;48.730;9.156;2023-04-24T08:17:47;3.70;;;2.50;;
8435;SDS011;4255;48.730;9.156;2023-04-24T08:20:12;2.97;;;2.67;;
8435;SDS011;4255;48.730;9.156;2023-04-24T08:22:39;3.23;;;2.43;;
8435;SDS011;4255;48.730;9.156;2023-04-24T08:25:05;2.40;;;2.20;;
8435;SDS011;4255;48.730;9.156;2023-04-24T08:27:31;5.05;;;2.22;;
8435;SDS011;4255;48.730;9.156;2023-04-24T08:29:57;2.50;;;2.30;;
8435;SDS011;4255;48.730;9.156;2023-04-24T08:32:23;2.55;;;2.33;;
8435;SDS011;4255;48.730;9.156;2023-04-24T08:34:49;2.70;;;2.13;;
8435;SDS011;4255;48.730;9.156;2023-04-24T08:37:17;7.43;;;2.58;;
8435;SDS011;4255;48.730;9.156;2023-04-24T08:39:43;2.27;;;2.17;;
8435;SDS011;4255;48.730;9.156;2023-04-24T08:42:08;2.43;;;2.30;;
8435;SDS011;4255;48.730;9.156;2023-04-24T08:44:36;2.43;;;2.33;;
8435;SDS011;4255;48.730;9.156;2023-04-24T08:47:02;2.33;;;2.13;;
8435;SDS011;4255;48.730;9.156;2023-04-24T08:49:28;2.70;;;2.50;;
8435;SDS011;4255;48.730;9.156;2023-04-24T08:51:54;2.93;;;2.60;;
8435;SDS011;4255;48.730;9.156;2023-04-24T08:54:20;6.00;;;2.67;;
8435;SDS011;4255;48.730;9.156;2023-04-24T08:56:47;3.57;;;2.30;;
8435;SDS011;4255;48.730;9.156;2023-04-24T08:59:14;2.60;;;2.03;;
8435;SDS011;4255;48.730;9.156;2023-04-24T09:01:40;5.32;;;2.95;;
8435;SDS011;4255;48.730;9.156;2023-04-24T09:04:06;3.20;;;2.17;;
8435;SDS011;4255;48.730;9.156;2023-04-24T09:06:34;5.63;;;2.63;;
8435;SDS011;4255;48.730;9.156;2023-04-24T09:09:00;1.93;;;1.83;;
8435;SDS011;4255;48.730;9.156;2023-04-24T09:11:27;4.60;;;2.47;;
8435;SDS011;4255;48.730;9.156;2023-04-24T09:13:56;2.60;;;2.40;;
8435;SDS011;4255;48.730;9.156;2023-04-24T09:16:21;2.83;;;2.60;;
8435;SDS011;4255;48.730;9.156;2023-04-24T09:18:49;2.60;;;2.50;;
8435;SDS011;4255;48.730;9.156;2023-04-24T09:21:15;2.73;;;2.60;;
8435;SDS011;4255;48.730;9.156;2023-04-24T09:23:41;2.50;;;2.33;;
8435;SDS011;4255;48.730;9.156;2023-04-24T09:26:06;2.90;;;2.70;;
8435;SDS011;4255;48.730;9.156;2023-04-24T09:28:35;1.80;;;1.70;;
8435;SDS011;4255;48.730;9.156;2023-04-24T09:31:11;1.80;;;1.70;;
8435;SDS011;4255;48.730;9.156;2023-04-24T09:33:57;2.30;;;2.10;;
8435;SDS011;4255;48.730;9.156;2023-04-24T09:36:37;2.40;;;2.20;;
8435;SDS011;4255;48.730;9.156;2023-04-24T09:39:04;1.83;;;1.73;;
8435;SDS011;4255;48.730;9.156;2023-04-24T09:41:33;2.10;;;2.00;;
8435;SDS011;4255;48.730;9.156;2023-04-24T09:44:10;1.90;;;1.80;;
8435;SDS011;4255;48.730;9.156;2023-04-24T09:46:38;2.20;;;2.00;;
8435;SDS011;4255;48.730;9.156;2023-04-24T09:49:07;1.80;;;1.70;;
8435;SDS011;4255;48.730;9.156;2023-04-24T09:51:38;2.27;;;2.17;;
8435;SDS011;4255;48.730;9.156;2023-04-24T09:54:05;2.10;;;2.00;;
8435;SDS011;4255;48.730;9.156;2023-04-24T09:56:48;1.70;;;1.60;;
8435;SDS011;4255;48.730;9.156;2023-04-24T09:59:15;2.30;;;2.20;;
8435;SDS011;4255;48.730;9.156;2023-04-24T10:01:42;3.43;;;2.17;;
8435;SDS011;4255;48.730;9.156;2023-04-24T10:04:30;2.37;;;2.27;;
8435;SDS011;4255;48.730;9.156;2023-04-24T10:06:56;1.90;;;1.80;;
8435;SDS011;4255;48.730;9.156;2023-04-24T10:09:23;1.90;;;1.80;;
8435;SDS011;4255;48.730;9.156;2023-04-24T10:11:51;1.90;;;1.80;;
8435;SDS011;4255;48.730;9.156;2023-04-24T10:14:20;5.40;;;2.37;;
8435;SDS011;4255;48.730;9.156;2023-04-24T10:16:47;2.77;;;2.50;;
8435;SDS011;4255;48.730;9.156;2023-04-24T10:19:14;2.03;;;1.93;;
8435;SDS011;4255;48.730;9.156;2023-04-24T10:21:41;1.80;;;1.70;;
8435;SDS011;4255;48.730;9.156;2023-04-24T10:24:11;1.60;;;1.50;;
8435;SDS011;4255;48.730;9.156;2023-04-24T10:26:41;2.30;;;2.20;;
8435;SDS011;4255;48.730;9.156;2023-04-24T10:29:07;4.63;;;1.93;;
8435;SDS011;4255;48.730;9.156;2023-04-24T10:31:35;3.87;;;1.90;;
8435;SDS011;4255;48.730;9.156;2023-04-24T10:34:02;2.60;;;1.83;;
8435;SDS011;4255;48.730;9.156;2023-04-24T10:36:30;1.97;;;1.87;;
8435;SDS011;4255;48.730;9.156;2023-04-24T10:38:57;2.07;;;1.97;;
8435;SDS011;4255;48.730;9.156;2023-04-24T10:41:26;2.20;;;2.10;;
8435;SDS011;4255;48.730;9.156;2023-04-24T10:46:37;2.00;;;1.90;;
8435;SDS011;4255;48.730;9.156;2023-04-24T10:49:05;1.93;;;1.80;;
8435;SDS011;4255;48.730;9.156;2023-04-24T10:51:46;2.60;;;1.70;;
8435;SDS011;4255;48.730;9.156;2023-04-24T10:54:27;2.40;;;2.20;;
8435;SDS011;4255;48.730;9.156;2023-04-24T10:59:46;1.95;;;1.85;;
8435;SDS011;4255;48.730;9.156;2023-04-24T11:02:15;2.03;;;1.90;;
8435;SDS011;4255;48.730;9.156;2023-04-24T11:04:42;2.50;;;2.30;;
8435;SDS011;4255;48.730;9.156;2023-04-24T11:07:08;2.07;;;1.97;;
8435;SDS011;4255;48.730;9.156;2023-04-24T11:09:35;2.22;;;2.13;;
8435;SDS011;4255;48.730;9.156;2023-04-24T11:12:08;1.60;;;1.50;;
8435;SDS011;4255;48.730;9.156;2023-04-24T11:20:06;2.65;;;2.20;;
8435;SDS011;4255;48.730;9.156;2023-04-24T11:22:34;2.15;;;1.98;;
8435;SDS011;4255;48.730;9.156;2023-04-24T11:25:01;3.50;;;2.35;;
8435;SDS011;4255;48.730;9.156;2023-04-24T11:27:47;5.68;;;2.03;;
8435;SDS011;4255;48.730;9.156;2023-04-24T11:30:16;2.00;;;1.90;;
8435;SDS011;4255;48.730;9.156;2023-04-24T11:32:43;2.40;;;2.10;;
8435;SDS011;4255;48.730;9.156;2023-04-24T11:35:19;2.07;;;1.97;;
8435;SDS011;4255;48.730;9.156;2023-04-24T11:37:49;3.03;;;2.73;;
8435;SDS011;4255;48.730;9.156;2023-04-24T11:40:17;2.20;;;2.10;;
8435;SDS011;4255;48.730;9.156;2023-04-24T11:42:48;2.23;;;1.87;;
8435;SDS011;4255;48.730;9.156;2023-04-24T11:45:18;1.90;;;1.80;;
8435;SDS011;4255;48.730;9.156;2023-04-24T11:47:47;3.90;;;2.20;;
8435;SDS011;4255;48.730;9.156;2023-04-24T11:50:16;3.57;;;2.60;;
8435;SDS011;4255;48.730;9.156;2023-04-24T11:52:44;1.80;;;1.70;;
8435;SDS011;4255;48.730;9.156;2023-04-24T11:57:39;3.72;;;2.42;;
8435;SDS011;4255;48.730;9.156;2023-04-24T12:00:14;2.93;;;2.73;;
8435;SDS011;4255;48.730;9.156;2023-04-24T12:02:50;2.00;;;1.90;;
8435;SDS011;4255;48.730;9.156;2023-04-24T12:05:20;2.10;;;1.87;;
8435;SDS011;4255;48.730;9.156;2023-04-24T12:07:52;2.27;;;2.17;;
8435;SDS011;4255;48.730;9.156;2023-04-24T12:10:20;2.30;;;2.10;;
8435;SDS011;4255;48.730;9.156;2023-04-24T12:12:46;2.63;;;2.43;;
8435;SDS011;4255;48.730;9.156;2023-04-24T12:15:12;2.83;;;2.20;;
8435;SDS011;4255;48.730;9.156;2023-04-24T12:17:40;2.73;;;2.60;;
8435;SDS011;4255;48.730;9.156;2023-04-24T12:20:07;2.47;;;2.27;;
8435;SDS011;4255;48.730;9.156;2023-04-24T12:22:43;2.40;;;2.30;;
8435;SDS011;4255;48.730;9.156;2023-04-24T12:25:15;2.65;;;2.55;;
8435;SDS011;4255;48.730;9.156;2023-04-24T12:27:43;4.67;;;3.33;;
8435;SDS011;4255;48.730;9.156;2023-04-24T12:30:11;2.42;;;2.22;;
8435;SDS011;4255;48.730;9.156;2023-04-24T12:32:42;2.30;;;2.20;;
8435;SDS011;4255;48.730;9.156;2023-04-24T12:35:08;3.00;;;2.40;;
8435;SDS011;4255;48.730;9.156;2023-04-24T12:37:34;3.00;;;2.57;;
8435;SDS011;4255;48.730;9.156;2023-04-24T12:40:08;2.70;;;2.50;;
8435;SDS011;4255;48.730;9.156;2023-04-24T12:42:42;2.73;;;2.33;;
8435;SDS011;4255;48.730;9.156;2023-04-24T12:45:11;2.40;;;2.30;;
8435;SDS011;4255;48.730;9.156;2023-04-24T12:47:38;2.43;;;2.20;;
8435;SDS011;4255;48.730;9.156;2023-04-24T12:50:06;2.30;;;2.20;;
8435;SDS011;4255;48.730;9.156;2023-04-24T12:52:35;2.07;;;1.97;;
8435;SDS011;4255;48.730;9.156;2023-04-24T12:55:01;2.23;;;2.03;;
8435;SDS011;4255;48.730;9.156;2023-04-24T12:57:28;2.20;;;2.10;;
8435;SDS011;4255;48.730;9.156;2023-04-24T12:59:55;2.58;;;2.38;;
8435;SDS011;4255;48.730;9.156;2023-04-24T13:02:24;1.98;;;1.85;;
8435;SDS011;4255;48.730;9.156;2023-04-24T13:04:52;2.22;;;2.05;;
8435;SDS011;4255;48.730;9.156;2023-04-24T13:07:17;3.38;;;2.05;;
8435;SDS011;4255;48.730;9.156;2023-04-24T13:09:43;2.33;;;2.10;;
8435;SDS011;4255;48.730;9.156;2023-04-24T13:12:10;2.53;;;2.38;;
8435;SDS011;4255;48.730;9.156;2023-04-24T13:14:36;1.92;;;1.83;;
8435;SDS011;4255;48.730;9.156;2023-04-24T13:17:02;3.10;;;2.90;;
8435;SDS011;4255;48.730;9.156;2023-04-24T13:19:28;2.75;;;2.30;;
8435;SDS011;4255;48.730;9.156;2023-04-24T13:21:55;2.60;;;2.40;;
8435;SDS011;4255;48.730;9.156;2023-04-24T13:24:22;3.03;;;2.40;;
8435;SDS011;4255;48.730;9.156;2023-04-24T13:26:51;2.13;;;2.03;;
8435;SDS011;4255;48.730;9.156;2023-04-24T13:29:17;2.13;;;2.03;;
8435;SDS011;4255;48.730;9.156;2023-04-24T13:31:43;2.40;;;2.20;;
8435;SDS011;4255;48.730;9.156;2023-04-24T13:34:09;2.70;;;2.50;;
8435;SDS011;4255;48.730;9.156;2023-04-24T13:36:35;2.30;;;2.17;;
8435;SDS011;4255;48.730;9.156;2023-04-24T13:39:01;3.57;;;2.80;;
8435;SDS011;4255;48.730;9.156;2023-04-24T13:41:29;4.03;;;2.75;;
8435;SDS011;4255;48.730;9.156;2023-04-24T13:43:55;2.30;;;2.20;;
8435;SDS011;4255;48.730;9.156;2023-04-24T13:46:20;4.00;;;2.70;;
8435;SDS011;4255;48.730;9.156;2023-04-24T13:48:46;2.70;;;2.50;;
8435;SDS011;4255;48.730;9.156;2023-04-24T13:51:12;7.60;;;2.77;;
8435;SDS011;4255;48.730;9.156;2023-04-24T13:53:37;2.80;;;2.60;;
8435;SDS011;4255;48.730;9.156;2023-04-24T13:56:03;2.70;;;2.50;;
8435;SDS011;4255;48.730;9.156;2023-04-24T13:58:30;3.00;;;2.80;;
8435;SDS011;4255;48.730;9.156;2023-04-24T14:00:57;2.88;;;2.67;;
8435;SDS011;4255;48.730;9.156;2023-04-24T14:03:22;2.43;;;2.23;;
8435;SDS011;4255;48.730;9.156;2023-04-24T14:05:48;2.50;;;2.37;;
8435;SDS011;4255;48.730;9.156;2023-04-24T14:08:14;2.77;;;2.57;;
8435;SDS011;4255;48.730;9.156;2023-04-24T14:10:39;3.40;;;3.10;;
8435;SDS011;4255;48.730;9.156;2023-04-24T14:13:05;2.57;;;2.43;;
8435;SDS011;4255;48.730;9.156;2023-04-24T14:15:31;2.77;;;2.57;;
8435;SDS011;4255;48.730;9.156;2023-04-24T14:17:56;2.70;;;2.50;;
8435;SDS011;4255;48.730;9.156;2023-04-24T14:20:22;3.00;;;2.80;;
8435;SDS011;4255;48.730;9.156;2023-04-24T14:22:48;2.33;;;2.23;;
8435;SDS011;4255;48.730;9.156;2023-04-24T14:25:13;2.37;;;2.27;;
8435;SDS011;4255;48.730;9.156;2023-04-24T14:27:40;2.42;;;2.22;;
8435;SDS011;4255;48.730;9.156;2023-04-24T14:30:06;3.90;;;3.60;;
8435;SDS011;4255;48.730;9.156;2023-04-24T14:32:32;5.70;;;3.10;;
8435;SDS011;4255;48.730;9.156;2023-04-24T14:34:58;3.73;;;2.93;;
8435;SDS011;4255;48.730;9.156;2023-04-24T14:37:23;4.13;;;2.80;;
8435;SDS011;4255;48.730;9.156;2023-04-24T14:39:49;3.23;;;2.93;;
8435;SDS011;4255;48.730;9.156;2023-04-24T14:42:14;3.53;;;2.90;;
8435;SDS011;4255;48.730;9.156;2023-04-24T14:44:41;2.80;;;2.70;;
8435;SDS011;4255;48.730;9.156;2023-04-24T14:47:07;3.47;;;3.17;;
8435;SDS011;4255;48.730;9.156;2023-04-24T14:49:33;3.00;;;2.83;;
8435;SDS011;4255;48.730;9.156;2023-04-24T14:51:58;3.67;;;3.37;;
8435;SDS011;4255;48.730;9.156;2023-04-24T14:54:24;6.70;;;3.10;;
8435;SDS011;4255;48.730;9.156;2023-04-24T14:56:50;4.70;;;3.60;;
8435;SDS011;4255;48.730;9.156;2023-04-24T14:59:16;3.30;;;3.00;;
8435;SDS011;4255;48.730;9.156;2023-04-24T15:01:41;4.83;;;3.07;;
8435;SDS011;4255;48.730;9.156;2023-04-24T15:04:07;2.83;;;2.63;;
8435;SDS011;4255;48.730;9.156;2023-04-24T15:06:32;3.70;;;3.40;;
8435;SDS011;4255;48.730;9.156;2023-04-24T15:08:58;2.80;;;2.60;;
8435;SDS011;4255;48.730;9.156;2023-04-24T15:11:24;2.80;;;2.60;;
8435;SDS011;4255;48.730;9.156;2023-04-24T15:13:50;10.53;;;3.33;;
8435;SDS011;4255;48.730;9.156;2023-04-24T15:16:16;3.67;;;3.37;;
8435;SDS011;4255;48.730;9.156;2023-04-24T15:18:41;7.53;;;3.17;;
8435;SDS011;4255;48.730;9.156;2023-04-24T15:21:07;3.77;;;3.23;;
8435;SDS011;4255;48.730;9.156;2023-04-24T15:23:33;2.93;;;2.73;;
8435;SDS011;4255;48.730;9.156;2023-04-24T15:25:58;6.03;;;3.50;;
8435;SDS011;4255;48.730;9.156;2023-04-24T15:31:02;3.28;;;3.08;;
8435;SDS011;4255;48.730;9.156;2023-04-24T15:33:28;5.03;;;2.80;;